Time;durP1;ratioP1;P1;durP2;ratioP2;P2;SDS_P1;SDS_P2;PMS_P1;PMS_P2;Temp;Humidity;BMP_temperature;BMP_pressure;BME280_temperature;BME280_humidity;BME280_pressure;Samples;Min_cycle;Max_cycle;Signal;HPM_P1;HPM_P2
2022/10/02 00:02:55;;;;;;;34.97;8.45;;;;;;;11.07;100.00;101229.44;10342544;28;20788;-78
2022/10/02 00:08:11;;;;;;;31.20;7.43;;;;;;;11.21;100.00;101224.91;10357169;28;20133;-78
2022/10/02 00:13:15;;;;;;;21.83;6.15;;;;;;;11.26;100.00;101236.53;10357262;28;20052;-78
2022/10/02 00:18:21;;;;;;;25.90;7.63;;;;;;;11.26;100.00;101241.78;10341778;28;20038;-78
2022/10/02 00:23:37;;;;;;;31.50;6.38;;;;;;;11.36;100.00;101243.13;10344236;28;20038;-78
2022/10/02 00:29:02;;;;;;;34.80;8.55;;;;;;;11.48;100.00;101247.19;10340784;28;20038;-78
2022/10/02 00:34:05;;;;;;;29.33;10.40;;;;;;;11.50;100.00;101250.78;10366466;28;20087;-80
2022/10/02 00:39:37;;;;;;;25.25;7.05;;;;;;;11.48;100.00;101255.97;10366282;28;20053;-78
2022/10/02 00:44:56;;;;;;;22.38;6.82;;;;;;;11.55;100.00;101249.28;10366336;28;20552;-78
2022/10/02 00:50:08;;;;;;;28.17;8.95;;;;;;;11.58;100.00;101273.94;10366039;28;20532;-77
2022/10/02 00:55:49;;;;;;;30.35;9.48;;;;;;;11.55;100.00;101262.41;10365532;28;20498;-78
2022/10/02 01:00:58;;;;;;;23.55;7.32;;;;;;;11.45;100.00;101261.06;10358543;28;20502;-78
2022/10/02 01:05:59;;;;;;;33.80;7.57;;;;;;;11.45;100.00;101263.66;10365160;28;20128;-78
2022/10/02 01:10:59;;;;;;;32.15;8.35;;;;;;;11.38;100.00;101258.94;10362895;28;20044;-77
2022/10/02 01:16:00;;;;;;;28.27;6.55;;;;;;;11.45;100.00;101266.28;10364696;28;20488;-78
2022/10/02 01:21:06;;;;;;;42.88;14.60;;;;;;;11.53;100.00;101262.34;10347997;28;20046;-77
2022/10/02 01:26:07;;;;;;;24.92;7.25;;;;;;;11.55;100.00;101263.31;10347258;28;20129;-78
2022/10/02 01:31:09;;;;;;;36.45;8.55;;;;;;;11.59;100.00;101266.97;10327010;28;20037;-78
2022/10/02 01:36:10;;;;;;;36.17;8.90;;;;;;;11.57;100.00;101266.91;10344469;28;20041;-77
2022/10/02 01:41:11;;;;;;;33.25;9.95;;;;;;;11.61;100.00;101254.84;10362478;28;20037;-78
2022/10/02 01:46:31;;;;;;;36.08;7.43;;;;;;;11.75;100.00;101256.41;10346948;28;20362;-78
2022/10/02 01:51:47;;;;;;;23.05;7.47;;;;;;;11.77;100.00;101269.63;10343280;28;20038;-78
2022/10/02 01:56:56;;;;;;;34.97;8.40;;;;;;;11.79;100.00;101256.56;10347235;28;20504;-78
2022/10/02 02:02:32;;;;;;;17.33;6.47;;;;;;;11.81;100.00;101258.44;10352788;28;20065;-78
2022/10/02 02:07:47;;;;;;;31.60;8.98;;;;;;;11.83;100.00;101255.88;10342070;28;20056;-78
2022/10/02 02:13:03;;;;;;;21.25;8.27;;;;;;;11.95;100.00;101251.25;10362184;28;20030;-77
2022/10/02 02:18:07;;;;;;;29.80;7.18;;;;;;;11.94;100.00;101257.31;10361890;28;20038;-78
2022/10/02 02:23:11;;;;;;;31.05;8.65;;;;;;;11.97;100.00;101254.84;10361654;28;20042;-78
2022/10/02 02:28:13;;;;;;;41.55;9.02;;;;;;;11.98;100.00;101254.00;10345507;28;20383;-78
2022/10/02 02:33:30;;;;;;;43.35;9.75;;;;;;;12.10;100.00;101260.69;10360899;28;20462;-78
2022/10/02 02:38:32;;;;;;;32.15;8.88;;;;;;;12.13;100.00;101266.09;10347472;28;20125;-78
2022/10/02 02:43:41;;;;;;;41.90;10.43;;;;;;;12.22;100.00;101269.16;10360545;28;20383;-78
2022/10/02 02:48:46;;;;;;;33.90;10.10;;;;;;;12.23;100.00;101270.97;10359935;28;20045;-80
2022/10/02 02:53:57;;;;;;;34.95;10.07;;;;;;;12.24;100.00;101266.63;10358356;28;20042;-78
2022/10/02 02:59:07;;;;;;;26.63;7.25;;;;;;;12.15;100.00;101264.44;10344800;28;20053;-78
2022/10/02 03:04:11;;;;;;;35.33;8.02;;;;;;;12.15;100.00;101267.06;10304528;28;20042;-78
2022/10/02 03:09:14;;;;;;;30.65;8.50;;;;;;;12.25;100.00;101271.94;10353047;28;20090;-78
2022/10/02 03:14:41;;;;;;;25.58;6.35;;;;;;;12.26;100.00;101259.72;10344887;28;20092;-78
2022/10/02 03:20:20;;;;;;;29.55;6.97;;;;;;;12.29;100.00;101260.75;10359220;28;20046;-78
2022/10/02 03:25:30;;;;;;;22.92;4.68;;;;;;;12.29;100.00;101262.50;10359554;28;20049;-79
2022/10/02 03:30:31;;;;;;;25.27;7.07;;;;;;;12.32;100.00;101260.00;10359461;28;20045;-79
2022/10/02 03:35:31;;;;;;;16.58;3.80;;;;;;;12.25;100.00;101256.19;10342784;28;20146;-79
2022/10/02 03:40:32;;;;;;;26.05;5.10;;;;;;;12.12;100.00;101252.09;10341973;28;20050;-81
2022/10/02 03:45:33;;;;;;;18.95;5.93;;;;;;;12.09;100.00;101257.19;10359501;28;20109;-78
2022/10/02 03:50:33;;;;;;;20.20;6.68;;;;;;;12.18;100.00;101259.34;10339394;28;20477;-79
2022/10/02 03:55:37;;;;;;;23.05;5.43;;;;;;;12.12;100.00;101261.69;10359129;28;20489;-78
2022/10/02 04:00:40;;;;;;;27.23;7.22;;;;;;;12.12;100.00;101251.19;10357300;28;20037;-78
2022/10/02 04:05:46;;;;;;;38.88;8.70;;;;;;;12.18;100.00;101264.59;10341151;28;20558;-78
2022/10/02 04:10:51;;;;;;;24.98;8.70;;;;;;;12.19;100.00;101248.03;10358387;28;20068;-78
2022/10/02 04:16:09;;;;;;;28.15;9.85;;;;;;;12.27;100.00;101249.28;10320902;28;20034;-78
2022/10/02 04:21:36;;;;;;;22.08;7.05;;;;;;;12.41;100.00;101264.78;10351672;28;20100;-79
2022/10/02 04:26:38;;;;;;;45.30;8.77;;;;;;;12.44;100.00;101268.47;10344051;28;20065;-77
2022/10/02 04:31:39;;;;;;;24.48;8.48;;;;;;;12.41;100.00;101272.66;10347734;28;20030;-79
2022/10/02 04:37:08;;;;;;;28.00;7.90;;;;;;;12.47;100.00;101281.72;10359721;28;20065;-78
2022/10/02 04:42:21;;;;;;;27.25;9.00;;;;;;;12.55;100.00;101283.81;10319526;28;20046;-78
2022/10/02 04:47:27;;;;;;;25.55;7.53;;;;;;;12.58;100.00;101278.69;10339609;28;20041;-79
2022/10/02 04:53:11;;;;;;;23.42;8.30;;;;;;;12.49;100.00;101284.41;10357673;28;20065;-78
2022/10/02 04:58:29;;;;;;;21.73;6.68;;;;;;;12.44;100.00;101283.28;10327524;28;20405;-79
2022/10/02 05:03:50;;;;;;;27.50;8.68;;;;;;;12.35;100.00;101296.91;10329822;28;20038;-78
2022/10/02 05:09:02;;;;;;;22.20;7.93;;;;;;;12.30;100.00;101303.66;10352716;28;20494;-78
2022/10/02 05:14:15;;;;;;;33.00;11.25;;;;;;;12.19;100.00;101309.28;10362284;28;20045;-79
2022/10/02 05:19:32;;;;;;;29.20;6.97;;;;;;;12.25;100.00;101310.41;10361942;28;20494;-78
2022/10/02 05:24:38;;;;;;;25.33;7.35;;;;;;;12.15;100.00;101309.97;10330787;28;20048;-78
2022/10/02 05:29:56;;;;;;;24.77;8.05;;;;;;;12.17;100.00;101310.03;10364507;28;20038;-78
2022/10/02 05:35:25;;;;;;;31.38;7.70;;;;;;;12.10;100.00;101303.59;10362000;28;20042;-78
2022/10/02 05:40:30;;;;;;;29.00;6.68;;;;;;;12.03;100.00;101312.88;10296387;28;20053;-82
2022/10/02 05:45:39;;;;;;;23.67;8.40;;;;;;;12.06;100.00;101316.47;10326007;28;20036;-79
2022/10/02 05:50:39;;;;;;;17.50;7.88;;;;;;;12.01;100.00;101325.03;10342518;28;20037;-80
2022/10/02 05:55:48;;;;;;;24.20;7.75;;;;;;;12.04;100.00;101337.41;10358811;28;20141;-80
2022/10/02 06:00:51;;;;;;;19.63;7.55;;;;;;;12.18;100.00;101343.31;10329109;28;20486;-81
2022/10/02 06:05:59;;;;;;;20.67;6.25;;;;;;;12.22;100.00;101342.63;10329037;28;20485;-79
2022/10/02 06:11:04;;;;;;;22.88;7.15;;;;;;;12.30;100.00;101345.66;10321546;28;20062;-80
2022/10/02 06:16:36;;;;;;;18.98;7.60;;;;;;;12.36;100.00;101343.31;10335291;28;20046;-80
2022/10/02 06:21:47;;;;;;;21.33;6.07;;;;;;;12.41;100.00;101357.56;10344250;28;20046;-78
2022/10/02 06:26:59;;;;;;;20.80;8.18;;;;;;;12.47;100.00;101359.56;10361081;28;20045;-78
2022/10/02 06:32:31;;;;;;;18.77;6.63;;;;;;;12.54;100.00;101360.78;10361400;28;20038;-78
2022/10/02 06:37:40;;;;;;;19.52;7.35;;;;;;;12.62;100.00;101369.91;10358312;28;20048;-79
2022/10/02 06:42:40;;;;;;;18.80;6.60;;;;;;;12.73;100.00;101378.28;10344888;28;20046;-80
2022/10/02 06:48:07;;;;;;;24.35;7.28;;;;;;;12.86;100.00;101385.03;10356817;28;20041;-78
2022/10/02 06:53:32;;;;;;;20.88;10.10;;;;;;;12.89;100.00;101383.41;10319598;28;20046;-79
2022/10/02 06:59:11;;;;;;;17.55;7.65;;;;;;;12.85;100.00;101389.38;10356557;28;20050;-81
2022/10/02 07:04:17;;;;;;;19.45;5.35;;;;;;;12.91;100.00;101394.91;10355133;28;20523;-81
2022/10/02 07:09:48;;;;;;;14.55;5.97;;;;;;;12.95;100.00;101401.22;10342779;28;20049;-82
2022/10/02 07:15:16;;;;;;;15.30;5.57;;;;;;;12.90;100.00;101402.72;10359754;28;20038;-83
2022/10/02 07:20:41;;;;;;;14.35;4.88;;;;;;;12.82;100.00;101410.22;10357455;28;20785;-85
2022/10/02 07:26:20;;;;;;;19.33;5.47;;;;;;;12.81;100.00;101410.19;10332752;28;20049;-85
2022/10/02 07:31:44;;;;;;;15.68;6.72;;;;;;;12.82;100.00;101419.84;10357795;28;20038;-84
2022/10/02 07:36:55;;;;;;;18.77;5.28;;;;;;;12.78;100.00;101424.03;10358660;28;20106;-84
2022/10/02 07:42:14;;;;;;;13.38;5.53;;;;;;;12.74;100.00;101429.97;10360888;28;20472;-84
2022/10/02 07:47:32;;;;;;;11.43;5.03;;;;;;;12.81;100.00;101431.19;10356271;28;20062;-81
2022/10/02 07:52:51;;;;;;;14.07;6.68;;;;;;;12.85;100.00;101434.03;10351499;28;20058;-78
2022/10/02 07:57:58;;;;;;;23.33;6.10;;;;;;;12.97;100.00;101440.69;10355500;28;20046;-81
2022/10/02 08:03:01;;;;;;;20.40;5.68;;;;;;;13.02;100.00;101444.41;10357280;28;20044;-80
2022/10/02 08:08:08;;;;;;;14.07;5.47;;;;;;;13.01;100.00;101461.94;10357064;28;20038;-79
2022/10/02 08:13:11;;;;;;;13.07;5.80;;;;;;;13.03;100.00;101462.91;10355395;28;20494;-79
2022/10/02 08:18:16;;;;;;;15.98;5.30;;;;;;;13.06;100.00;101462.13;10358292;28;20489;-79
2022/10/02 08:23:26;;;;;;;12.20;4.13;;;;;;;12.99;100.00;101473.19;10356447;28;20042;-79
2022/10/02 08:28:31;;;;;;;15.70;5.18;;;;;;;13.04;100.00;101480.47;10355382;28;20049;-79
2022/10/02 08:33:31;;;;;;;16.20;3.80;;;;;;;13.26;100.00;101485.81;10341392;28;20096;-79
2022/10/02 08:38:44;;;;;;;12.65;4.57;;;;;;;13.29;100.00;101486.88;10355675;28;20124;-81
2022/10/02 08:43:50;;;;;;;;;;;;;;;13.30;100.00;101491.31;10356856;28;20054;-82
2022/10/02 08:49:00;;;;;;;11.18;3.22;;;;;;;13.38;100.00;101489.00;10363553;28;20373;-81
2022/10/02 08:54:31;;;;;;;12.40;3.97;;;;;;;13.41;100.00;101496.16;10365776;28;20506;-83
2022/10/02 08:59:47;;;;;;;10.73;3.22;;;;;;;13.67;100.00;101497.38;10364265;28;20041;-78
2022/10/02 09:05:11;;;;;;;12.05;4.20;;;;;;;13.75;100.00;101493.34;10365143;28;20046;-78
2022/10/02 09:10:44;;;;;;;12.18;4.57;;;;;;;14.03;100.00;101494.56;10363074;28;20042;-79
2022/10/02 09:15:46;;;;;;;9.40;3.15;;;;;;;14.89;96.22;101491.13;10361836;28;20421;-80
2022/10/02 09:21:07;;;;;;;12.48;5.15;;;;;;;15.37;91.03;101492.97;10361428;28;20037;-80
2022/10/02 09:26:19;;;;;;;12.95;5.85;;;;;;;15.71;90.68;101490.69;10347936;28;20122;-80
2022/10/02 09:31:39;;;;;;;21.73;11.98;;;;;;;16.36;87.01;101500.03;10344106;28;20050;-78
2022/10/02 09:36:45;;;;;;;16.70;7.82;;;;;;;16.58;82.99;101509.56;10358670;28;20500;-80
2022/10/02 09:42:18;;;;;;;6.40;2.78;;;;;;;16.41;84.57;101506.34;10359082;28;20046;-79
2022/10/02 09:47:34;;;;;;;10.02;3.42;;;;;;;16.83;82.03;101503.34;10362186;28;20509;-81
2022/10/02 09:53:16;;;;;;;9.52;3.58;;;;;;;16.49;81.83;101520.72;10351681;28;20037;-81
2022/10/02 09:58:35;;;;;;;13.27;4.72;;;;;;;16.05;85.79;101528.88;10359716;28;20038;-80
2022/10/02 10:03:51;;;;;;;18.42;4.35;;;;;;;20.44;69.36;101507.78;10364394;28;20038;-80
2022/10/02 10:09:24;;;;;;;8.82;5.90;;;;;;;19.21;70.13;101517.75;10361303;28;20060;-82
2022/10/02 10:14:55;;;;;;;17.77;10.60;;;;;;;18.29;73.12;101515.53;10358474;28;20139;-81
2022/10/02 10:20:11;;;;;;;12.65;7.63;;;;;;;17.62;75.58;101526.03;10358630;28;20096;-81
2022/10/02 10:25:19;;;;;;;15.00;6.22;;;;;;;18.29;73.74;101530.53;10356734;28;20050;-80
2022/10/02 10:30:38;;;;;;;12.38;5.15;;;;;;;19.00;69.23;101545.56;10359336;28;20680;-80
2022/10/02 10:35:52;;;;;;;16.02;5.90;;;;;;;17.91;74.63;101555.09;10361326;28;20493;-81
2022/10/02 10:41:30;;;;;;;17.02;6.63;;;;;;;18.60;70.47;101565.78;10358376;28;20141;-81
2022/10/02 10:46:36;;;;;;;11.05;6.40;;;;;;;18.47;70.88;101576.06;10359517;28;20826;-81
2022/10/02 10:52:06;;;;;;;15.43;6.22;;;;;;;17.43;73.72;101583.69;10355536;28;20034;-79
2022/10/02 10:57:16;;;;;;;16.83;8.23;;;;;;;17.01;75.23;101585.00;10358816;28;20188;-78
2022/10/02 11:02:35;;;;;;;21.45;6.50;;;;;;;17.04;75.10;101586.88;10359986;28;20054;-77
2022/10/02 11:07:55;;;;;;;14.52;7.22;;;;;;;16.67;76.52;101602.34;10360047;28;20038;-78
2022/10/02 11:13:12;;;;;;;12.98;6.28;;;;;;;16.48;76.55;101598.19;10361191;28;20034;-78
2022/10/02 11:18:38;;;;;;;12.35;5.35;;;;;;;17.21;74.91;101600.63;10358187;28;20040;-78
2022/10/02 11:24:13;;;;;;;18.42;6.53;;;;;;;18.75;68.98;101586.50;10355535;28;20049;-77
2022/10/02 11:29:34;;;;;;;18.35;6.75;;;;;;;18.80;68.05;101595.47;10355644;28;20069;-78
2022/10/02 11:34:41;;;;;;;22.15;8.27;;;;;;;19.72;63.66;101597.59;10353244;28;20121;-78
2022/10/02 11:40:03;;;;;;;16.08;7.40;;;;;;;20.66;60.11;101601.22;10358630;28;20108;-79
2022/10/02 11:45:31;;;;;;;11.65;6.65;;;;;;;20.80;58.07;101607.69;10358676;28;20809;-78
2022/10/02 11:50:44;;;;;;;23.75;7.20;;;;;;;19.56;61.62;101607.00;10359021;28;20030;-79
2022/10/02 11:56:00;;;;;;;12.15;7.57;;;;;;;18.48;65.39;101599.06;10358032;28;20096;-79
2022/10/02 12:01:07;;;;;;;18.00;7.53;;;;;;;18.24;66.98;101591.34;10343933;28;20469;-78
2022/10/02 12:06:37;;;;;;;17.35;8.27;;;;;;;18.81;66.16;101593.69;10357272;28;20041;-78
2022/10/02 12:12:15;;;;;;;15.02;6.78;;;;;;;19.27;63.41;101589.53;10329015;28;20046;-79
2022/10/02 12:17:38;;;;;;;14.98;5.82;;;;;;;21.13;56.43;101586.97;10354951;28;20034;-80
2022/10/02 12:28:44;;;;;;;13.77;5.95;;;;;;;24.07;48.05;101593.31;10291624;28;20038;-80
2022/10/02 12:33:51;;;;;;;16.85;7.20;;;;;;;21.71;52.73;101581.56;10349179;28;20045;-79
2022/10/02 12:39:10;;;;;;;12.20;5.95;;;;;;;19.97;55.48;101591.09;10366466;28;20120;-78
2022/10/02 12:44:26;;;;;;;12.10;4.70;;;;;;;19.36;58.59;101587.09;10365191;28;20474;-77
2022/10/02 12:49:38;;;;;;;10.10;5.03;;;;;;;19.08;59.31;101590.88;10364312;28;20447;-78
2022/10/02 12:55:12;;;;;;;15.63;6.43;;;;;;;19.26;60.38;101593.03;10348701;28;20048;-79
2022/10/02 13:00:16;;;;;;;11.75;5.82;;;;;;;18.83;60.88;101597.28;10363257;28;20076;-79
2022/10/02 13:05:45;;;;;;;9.35;4.95;;;;;;;18.14;62.46;101592.81;10363883;28;20046;-78
2022/10/02 13:10:49;;;;;;;13.82;4.90;;;;;;;18.11;62.95;101599.81;10362665;28;20068;-77
2022/10/02 13:15:55;;;;;;;13.77;7.05;;;;;;;18.11;64.87;101610.41;10346921;28;20077;-77
2022/10/02 13:21:03;;;;;;;12.52;6.32;;;;;;;17.67;65.71;101609.09;10363061;28;20082;-77
2022/10/02 13:26:29;;;;;;;12.43;5.95;;;;;;;17.36;67.91;101618.75;10364070;28;20549;-77
2022/10/02 13:31:53;;;;;;;10.75;5.65;;;;;;;17.04;70.22;101623.91;10325799;28;20046;-77
2022/10/02 13:36:59;;;;;;;13.10;6.97;;;;;;;16.28;71.45;101639.72;10361793;28;20056;-77
2022/10/02 13:42:09;;;;;;;16.27;7.65;;;;;;;15.80;73.59;101644.09;10364511;28;20042;-76
2022/10/02 13:47:38;;;;;;;17.42;7.85;;;;;;;15.36;77.10;101638.88;10357561;28;20046;-77
2022/10/02 13:53:01;;;;;;;12.57;6.38;;;;;;;15.68;78.15;101646.25;10362306;28;20573;-77
2022/10/02 13:58:20;;;;;;;;;;;;;;;15.98;77.20;101643.94;10359886;28;20041;-77
2022/10/02 14:03:43;;;;;;;18.73;5.53;;;;;;;17.08;72.15;101660.16;10363325;28;20380;-78
2022/10/02 14:08:51;;;;;;;10.50;5.90;;;;;;;18.21;69.29;101660.16;10360046;28;20089;-79
2022/10/02 14:13:58;;;;;;;9.98;5.45;;;;;;;19.35;64.90;101664.03;10359991;28;20048;-78
2022/10/02 14:19:05;;;;;;;13.43;6.63;;;;;;;19.69;62.58;101662.16;10360931;28;20494;-78
2022/10/02 14:30:02;;;;;;;14.23;5.07;;;;;;;19.85;60.66;101657.19;10330451;28;20097;-78
2022/10/02 14:35:24;;;;;;;7.85;4.72;;;;;;;18.89;65.10;101671.69;10349489;28;20034;-78
2022/10/02 14:40:30;;;;;;;12.15;4.90;;;;;;;18.25;65.69;101669.06;10360884;28;20097;-77
2022/10/02 14:46:01;;;;;;;12.45;5.00;;;;;;;17.85;66.67;101663.47;10358959;28;20036;-79
2022/10/02 14:51:21;;;;;;;24.37;10.37;;;;;;;17.37;69.62;101668.16;10372906;28;20030;-77
2022/10/02 14:56:52;;;;;;;6.93;4.00;;;;;;;19.91;61.79;101668.00;10358645;28;20273;-83
2022/10/02 15:02:08;;;;;;;12.00;3.20;;;;;;;21.79;55.07;101671.34;10360079;28;20072;-81
2022/10/02 15:07:13;;;;;;;13.65;3.92;;;;;;;21.81;53.03;101673.19;10359398;28;20050;-78
2022/10/02 15:12:32;;;;;;;13.90;4.35;;;;;;;20.46;55.77;101675.31;10355380;28;20041;-78
2022/10/02 15:17:54;;;;;;;8.07;2.70;;;;;;;18.92;60.91;101680.63;10357356;28;20045;-81
2022/10/02 15:22:57;;;;;;;16.17;4.65;;;;;;;17.27;62.78;101682.81;10360799;28;20054;-77
2022/10/02 15:28:29;;;;;;;6.53;3.85;;;;;;;16.24;66.56;101694.19;10358591;28;20038;-78
2022/10/02 15:33:55;;;;;;;9.82;3.85;;;;;;;15.83;68.86;101688.19;10361183;28;20034;-77
2022/10/02 15:39:11;;;;;;;11.95;2.78;;;;;;;16.36;67.31;101693.72;10356960;28;20045;-76
2022/10/02 15:44:38;;;;;;;8.68;3.05;;;;;;;16.29;68.23;101697.00;10337903;28;20049;-77
2022/10/02 15:50:03;;;;;;;9.77;3.22;;;;;;;16.13;66.91;101701.69;10359048;28;20061;-76
2022/10/02 15:55:15;;;;;;;10.43;2.55;;;;;;;16.07;68.10;101706.75;10357438;28;20034;-77
2022/10/02 16:00:20;;;;;;;9.93;3.67;;;;;;;15.73;70.79;101710.66;10357344;28;20038;-76
2022/10/02 16:05:44;;;;;;;11.75;2.92;;;;;;;15.69;71.95;101720.22;10341221;28;20091;-76
2022/10/02 16:11:18;;;;;;;12.57;3.60;;;;;;;15.78;73.33;101726.69;10341758;28;20092;-77
2022/10/02 16:16:30;;;;;;;7.32;3.13;;;;;;;15.50;71.78;101737.03;10359186;28;20042;-77
2022/10/02 16:21:49;;;;;;;;;;;;;;;15.14;73.64;101747.81;10359488;28;20046;-77
2022/10/02 16:27:31;;;;;;;18.17;4.35;;;;;;;14.66;75.16;101751.88;10359154;28;19921;-76
2022/10/02 16:32:33;;;;;;;11.33;4.23;;;;;;;14.21;76.98;101767.34;10233937;29;20094;-77
2022/10/02 16:37:39;;;;;;;18.85;3.63;;;;;;;13.82;80.09;101777.78;10332481;28;20084;-77
2022/10/02 16:43:19;;;;;;;15.40;3.78;;;;;;;13.36;81.91;101791.31;10342415;28;20049;-76
2022/10/02 16:48:23;;;;;;;8.05;2.55;;;;;;;13.00;83.61;101808.69;10317767;28;20045;-76
2022/10/02 16:53:43;;;;;;;9.00;3.70;;;;;;;12.68;86.99;101814.03;10326199;28;20433;-77
2022/10/02 16:58:49;;;;;;;16.55;3.92;;;;;;;12.33;90.99;101834.91;10354530;28;20518;-77
2022/10/02 17:04:08;;;;;;;12.00;3.35;;;;;;;12.16;92.08;101839.22;10338793;28;20393;-76
2022/10/02 17:09:19;;;;;;;10.90;3.35;;;;;;;12.07;91.65;101853.50;10362672;28;20061;-77
2022/10/02 17:14:43;;;;;;;9.88;3.33;;;;;;;11.96;92.16;101860.75;10365345;28;20042;-77
2022/10/02 17:19:52;;;;;;;14.10;3.47;;;;;;;11.82;92.63;101870.41;10363151;28;20038;-76
2022/10/02 17:24:59;;;;;;;12.43;4.70;;;;;;;11.64;92.79;101881.63;10346896;28;20569;-76
2022/10/02 17:30:07;;;;;;;8.57;2.80;;;;;;;11.43;93.37;101886.50;10362634;28;20124;-76
2022/10/02 17:35:22;;;;;;;41.55;31.35;;;;;;;11.32;93.99;101906.81;10362355;28;20061;-76
2022/10/02 17:40:23;;;;;;;11.88;3.65;;;;;;;11.09;96.22;101908.91;10363923;28;20049;-76
2022/10/02 17:45:35;;;;;;;21.58;9.52;;;;;;;10.85;96.35;101924.91;10362598;28;20053;-77
2022/10/02 17:50:57;;;;;;;12.90;4.30;;;;;;;10.75;98.38;101934.72;10363068;28;20100;-76
2022/10/02 17:56:28;;;;;;;15.20;5.60;;;;;;;10.71;98.92;101942.38;10362197;28;20042;-76
2022/10/02 18:01:37;;;;;;;10.15;4.40;;;;;;;10.60;98.84;101948.63;10362602;28;20038;-76
2022/10/02 18:06:56;;;;;;;15.52;5.65;;;;;;;10.36;100.00;101961.88;10362683;28;20475;-77
2022/10/02 18:12:07;;;;;;;21.67;6.90;;;;;;;10.02;100.00;101977.94;10348535;28;20186;-77
2022/10/02 18:17:35;;;;;;;19.17;6.20;;;;;;;9.76;100.00;101979.69;10344652;28;20044;-79
2022/10/02 18:22:45;;;;;;;12.93;6.80;;;;;;;9.59;100.00;101994.19;10342855;28;20039;-78
2022/10/02 18:27:45;;;;;;;12.57;6.15;;;;;;;9.42;100.00;102002.53;10361035;28;20037;-76
2022/10/02 18:32:52;;;;;;;19.88;6.25;;;;;;;9.27;100.00;102011.13;10360969;28;20033;-78
2022/10/02 18:37:56;;;;;;;18.23;5.78;;;;;;;9.19;100.00;102014.88;10358487;28;20034;-78
2022/10/02 18:43:07;;;;;;;20.58;8.05;;;;;;;9.03;100.00;102018.09;10359183;28;20045;-78
2022/10/02 18:48:32;;;;;;;17.52;6.90;;;;;;;8.89;100.00;102018.00;10359220;28;20623;-77
2022/10/02 18:53:50;;;;;;;15.85;6.20;;;;;;;8.81;100.00;102032.22;10355598;28;20490;-77
2022/10/02 18:59:12;;;;;;;24.40;5.55;;;;;;;8.74;100.00;102032.56;10355558;28;20065;-77
2022/10/02 19:04:27;;;;;;;14.30;6.67;;;;;;;8.71;100.00;102042.75;10358312;28;20049;-77
2022/10/02 19:09:29;;;;;;;21.27;7.43;;;;;;;8.61;100.00;102043.75;10341292;28;20038;-77
2022/10/02 19:14:34;;;;;;;18.30;6.10;;;;;;;8.47;100.00;102046.22;10341406;28;20091;-77
2022/10/02 19:19:35;;;;;;;25.42;6.97;;;;;;;8.45;100.00;102060.84;10356655;28;20068;-77
2022/10/02 19:24:41;;;;;;;20.70;7.07;;;;;;;8.41;100.00;102071.84;10324986;28;20371;-76
2022/10/02 19:29:47;;;;;;;23.13;7.80;;;;;;;8.32;100.00;102077.28;10334872;28;20042;-76
2022/10/02 19:34:54;;;;;;;14.82;8.02;;;;;;;8.32;100.00;102077.28;10352527;28;20045;-76
2022/10/02 19:39:56;;;;;;;26.67;7.82;;;;;;;8.32;100.00;102089.41;10354185;28;20038;-77
2022/10/02 19:45:02;;;;;;;13.75;6.88;;;;;;;8.19;100.00;102095.41;10322418;28;20056;-77
2022/10/02 19:50:03;;;;;;;22.92;5.65;;;;;;;8.17;100.00;102100.47;10357869;28;20050;-77
2022/10/02 19:55:26;;;;;;;21.20;7.35;;;;;;;8.14;100.00;102104.56;10340991;28;20026;-77
2022/10/02 20:00:26;;;;;;;22.63;9.75;;;;;;;7.96;100.00;102097.13;10356682;28;20049;-77
2022/10/02 20:05:29;;;;;;;25.23;8.30;;;;;;;7.84;100.00;102115.31;10355827;28;20030;-76
2022/10/02 20:10:51;;;;;;;18.35;6.97;;;;;;;7.85;100.00;102118.84;10342010;28;20121;-76
2022/10/02 20:21:25;;;;;;;21.15;7.47;;;;;;;7.66;100.00;102129.50;10356199;28;20042;-76
2022/10/02 20:26:28;;;;;;;21.05;8.60;;;;;;;7.53;100.00;102158.88;10358707;28;20096;-76
2022/10/02 20:31:34;;;;;;;25.30;8.07;;;;;;;7.49;100.00;102158.63;10285601;28;20046;-77
2022/10/02 20:36:47;;;;;;;17.42;8.63;;;;;;;7.52;100.00;102168.38;10359547;28;20045;-77
2022/10/02 20:41:58;;;;;;;23.25;8.70;;;;;;;7.49;100.00;102175.94;10362262;28;20164;-77
2022/10/02 20:47:24;;;;;;;21.42;8.30;;;;;;;7.45;100.00;102192.09;10349041;28;20038;-76
2022/10/02 20:52:27;;;;;;;26.75;10.20;;;;;;;7.30;100.00;102192.66;10364798;28;20390;-77
2022/10/02 20:57:54;;;;;;;30.23;7.32;;;;;;;7.25;100.00;102178.38;10365878;28;20158;-77
2022/10/02 21:03:24;;;;;;;20.73;7.88;;;;;;;7.35;100.00;102180.03;10365881;28;20468;-77
2022/10/02 21:08:56;;;;;;;19.33;8.85;;;;;;;7.25;100.00;102194.00;10363863;28;20081;-78
2022/10/02 21:14:41;;;;;;;25.80;8.20;;;;;;;7.16;100.00;102203.66;10364770;28;20172;-78
2022/10/02 21:20:03;;;;;;;25.90;8.20;;;;;;;7.01;100.00;102211.09;10360879;28;20129;-78
2022/10/02 21:25:22;;;;;;;17.92;8.48;;;;;;;6.95;100.00;102221.00;10366472;28;23014;-77
2022/10/02 21:30:24;;;;;;;36.40;11.48;;;;;;;6.85;100.00;102230.63;10362263;28;20045;-77
2022/10/02 21:35:42;;;;;;;22.30;9.85;;;;;;;6.83;100.00;102236.47;10346915;28;20042;-77
2022/10/02 21:41:06;;;;;;;31.52;12.85;;;;;;;6.86;100.00;102247.16;10333665;28;20490;-78
2022/10/02 21:46:37;;;;;;;25.05;10.00;;;;;;;6.84;100.00;102262.66;10362799;28;20042;-77
2022/10/02 21:52:08;;;;;;;26.27;11.45;;;;;;;6.90;100.00;102259.63;10363274;28;20383;-77
2022/10/02 21:57:34;;;;;;;37.30;13.88;;;;;;;6.94;100.00;102253.03;10363414;28;20059;-77
2022/10/02 22:03:05;;;;;;;30.48;11.45;;;;;;;6.93;100.00;102265.09;10363344;28;20056;-77
2022/10/02 22:08:11;;;;;;;27.73;11.90;;;;;;;6.87;100.00;102267.19;10362659;28;20053;-76
2022/10/02 22:13:30;;;;;;;27.80;11.40;;;;;;;6.75;100.00;102278.38;10357431;28;20359;-77
2022/10/02 22:18:43;;;;;;;23.52;11.15;;;;;;;6.73;100.00;102285.13;10346692;28;20034;-77
2022/10/02 22:24:18;;;;;;;20.73;10.93;;;;;;;6.79;100.00;102286.44;10362741;28;20053;-77
2022/10/02 22:29:34;;;;;;;22.75;9.45;;;;;;;6.85;100.00;102294.78;10361027;28;20407;-77
2022/10/02 22:34:49;;;;;;;21.25;9.57;;;;;;;6.74;100.00;102299.97;10363084;28;20044;-77
2022/10/02 22:40:07;;;;;;;31.60;11.50;;;;;;;6.67;100.00;102300.22;10328213;28;20063;-77
2022/10/02 22:45:13;;;;;;;28.00;10.57;;;;;;;6.62;100.00;102293.69;10341766;28;20042;-77
2022/10/02 22:50:22;;;;;;;30.42;11.40;;;;;;;6.56;100.00;102294.09;10361752;28;20064;-77
2022/10/02 22:55:28;;;;;;;23.52;9.50;;;;;;;6.49;100.00;102288.22;10361330;28;20167;-77
2022/10/02 23:00:48;;;;;;;27.73;10.05;;;;;;;6.45;100.00;102289.66;10358534;28;20490;-78
2022/10/02 23:05:54;;;;;;;26.17;10.18;;;;;;;6.37;100.00;102293.28;10361095;28;20128;-77
2022/10/02 23:11:00;;;;;;;20.83;9.35;;;;;;;6.29;100.00;102298.72;10358717;28;20038;-77
2022/10/02 23:16:26;;;;;;;24.20;11.38;;;;;;;6.26;100.00;102297.50;10343854;28;20038;-78
2022/10/02 23:21:28;;;;;;;24.38;10.00;;;;;;;6.21;100.00;102298.78;10360948;28;20117;-77
2022/10/02 23:26:43;;;;;;;30.50;11.27;;;;;;;6.11;100.00;102304.88;10359859;28;20539;-78
2022/10/02 23:31:52;;;;;;;24.60;10.15;;;;;;;6.06;100.00;102311.38;10331419;28;20056;-77
2022/10/02 23:37:05;;;;;;;27.70;13.40;;;;;;;6.04;100.00;102318.13;10358116;28;20034;-77
2022/10/02 23:42:08;;;;;;;33.95;11.98;;;;;;;6.06;100.00;102321.75;10360447;28;20130;-77
2022/10/02 23:47:27;;;;;;;25.42;13.52;;;;;;;6.07;100.00;102323.59;10325308;28;20034;-77
2022/10/02 23:52:40;;;;;;;33.88;14.68;;;;;;;6.09;100.00;102330.72;10331437;28;20400;-77
2022/10/02 23:57:59;;;;;;;28.38;13.35;;;;;;;6.16;100.00;102333.09;10358224;28;20044;-77
